Time;durP1;ratioP1;P1;durP2;ratioP2;P2;SDS_P1;SDS_P2;PMS_P1;PMS_P2;Temp;Humidity;BMP_temperature;BMP_pressure;BME280_temperature;BME280_humidity;BME280_pressure;Samples;Min_cycle;Max_cycle;Signal;HPM_P1;HPM_P2
2023/04/02 00:01:18;;;;;;;;;3.67;3.67;;;;;13.52;55.76;100856.03;5053574;28;45455;-66
2023/04/02 00:03:43;;;;;;;;;7.33;5.67;;;;;13.50;56.02;100870.97;5036915;28;45723;-64
2023/04/02 00:06:33;;;;;;;;;5.33;5.00;;;;;13.47;55.89;100863.97;5036433;28;45461;-66
2023/04/02 00:09:16;;;;;;;;;6.00;5.00;;;;;13.47;56.00;100869.22;5053372;28;45493;-65
2023/04/02 00:11:44;;;;;;;;;4.67;4.67;;;;;13.47;56.19;100871.84;5033921;28;45463;-65
2023/04/02 00:14:32;;;;;;;;;6.33;6.33;;;;;13.45;56.14;100873.63;5026036;28;45943;-67
2023/04/02 00:17:01;;;;;;;;;7.00;6.75;;;;;13.44;56.19;100878.91;5036067;28;45554;-63
2023/04/02 00:19:36;;;;;;;;;5.67;4.67;;;;;13.40;55.66;100871.94;5054545;28;45476;-65
2023/04/02 00:22:06;;;;;;;;;6.00;6.00;;;;;13.33;55.89;100863.19;5038452;28;46138;-65
2023/04/02 00:24:32;;;;;;;;;9.00;5.00;;;;;13.38;55.54;100876.31;5038634;28;45420;-65
2023/04/02 00:26:58;;;;;;;;;3.25;2.50;;;;;13.38;55.93;100881.59;5057443;28;45339;-68
2023/04/02 00:29:23;;;;;;;;;6.00;5.00;;;;;13.40;55.95;100885.94;5057860;28;45463;-68
2023/04/02 00:31:52;;;;;;;;;4.67;4.33;;;;;13.41;56.37;100892.09;5036501;28;45754;-68
2023/04/02 00:34:31;;;;;;;;;6.33;5.00;;;;;13.32;55.68;100887.78;5035763;28;45916;-67
2023/04/02 00:36:57;;;;;;;;;4.00;4.00;;;;;13.33;56.09;100884.25;5036755;28;45620;-67
2023/04/02 00:39:30;;;;;;;;;6.33;5.00;;;;;13.35;56.41;100895.63;5022763;28;45347;-68
2023/04/02 00:42:17;;;;;;;;;4.00;3.00;;;;;13.33;56.35;100890.38;5026698;28;46190;-71
2023/04/02 00:44:44;;;;;;;;;7.75;5.00;;;;;13.31;56.54;100888.63;5046547;28;45538;-67
2023/04/02 00:47:23;;;;;;;;;2.00;2.00;;;;;13.34;56.12;100892.13;5054529;28;45624;-68
2023/04/02 00:49:56;;;;;;;;;5.75;5.50;;;;;13.32;56.39;100887.78;5054082;28;45799;-67
2023/04/02 00:52:26;;;;;;;;;10.75;6.75;;;;;13.31;56.28;100900.06;5052893;28;45607;-67
2023/04/02 00:55:03;;;;;;;;;12.00;6.25;;;;;13.27;56.42;100894.78;5055294;28;45575;-67
2023/04/02 00:57:28;;;;;;;;;7.67;4.67;;;;;13.08;56.83;100876.50;5039352;28;45636;-66
2023/04/02 01:00:06;;;;;;;;;7.25;5.00;;;;;13.20;56.99;100900.97;5057724;28;45501;-68
2023/04/02 01:02:37;;;;;;;;;9.00;5.67;;;;;13.16;56.60;100892.22;5030772;28;48149;-67
2023/04/02 01:05:21;;;;;;;;;9.00;6.00;;;;;13.13;56.71;100897.50;5043846;28;45506;-67
2023/04/02 01:08:15;;;;;;;;;7.25;4.50;;;;;13.10;56.83;100895.75;5038423;28;45586;-65
2023/04/02 01:11:10;;;;;;;;;4.25;4.25;;;;;13.14;57.10;100912.38;5039753;28;45566;-66
2023/04/02 01:13:46;;;;;;;;;5.50;5.00;;;;;13.16;56.75;100913.25;5043009;28;45529;-67
2023/04/02 01:16:24;;;;;;;;;4.75;4.00;;;;;13.15;56.84;100909.75;5041802;28;45610;-66
2023/04/02 01:19:00;;;;;;;;;5.00;5.00;;;;;13.17;57.24;100922.91;5040370;28;45490;-67
2023/04/02 01:21:55;;;;;;;;;6.00;5.50;;;;;13.16;56.86;100918.50;5051323;28;45419;-66
2023/04/02 01:24:25;;;;;;;;;5.33;4.00;;;;;13.16;57.40;100922.00;5024347;28;47050;-68
2023/04/02 01:26:54;;;;;;;;;6.00;5.00;;;;;13.20;57.23;100924.66;5040750;28;45581;-67
2023/04/02 01:29:29;;;;;;;;;6.00;6.00;;;;;13.14;56.83;100917.66;5036576;28;45402;-69
2023/04/02 01:32:04;;;;;;;;;5.00;5.00;;;;;13.19;56.66;100928.13;5020591;28;45585;-67
2023/04/02 01:34:31;;;;;;;;;8.00;6.00;;;;;13.16;57.01;100927.28;5036516;28;46127;-67
2023/04/02 01:37:02;;;;;;;;;6.00;4.67;;;;;13.13;57.90;100934.31;5040310;28;45348;-64
2023/04/02 01:39:40;;;;;;;;;5.00;4.25;;;;;13.13;58.31;100932.56;5024787;28;45475;-66
2023/04/02 01:42:28;;;;;;;;;4.33;3.33;;;;;13.11;58.89;100930.81;5035258;28;45732;-68
2023/04/02 01:45:07;;;;;;;;;3.33;3.00;;;;;13.02;58.89;100923.84;5018037;28;46713;-68
2023/04/02 01:47:33;;;;;;;;;2.67;2.67;;;;;13.07;58.85;100939.59;5036448;28;45445;-67
2023/04/02 01:50:10;;;;;;;;;5.00;3.00;;;;;13.07;58.65;100940.47;5036472;28;45499;-66
2023/04/02 01:52:40;;;;;;;;;2.33;2.00;;;;;13.07;58.29;100942.22;5037436;28;45542;-66
2023/04/02 01:55:07;;;;;;;;;4.00;3.67;;;;;13.06;58.54;100943.13;5040278;28;45702;-67
2023/04/02 01:57:33;;;;;;;;;3.00;2.00;;;;;13.05;57.99;100942.25;5037334;28;45482;-67
2023/04/02 02:00:00;;;;;;;;;3.33;3.00;;;;;13.08;58.35;100939.59;5036105;28;45546;-66
2023/04/02 02:02:26;;;;;;;;;3.33;2.00;;;;;13.04;58.30;100935.22;5035505;28;45314;-66
2023/04/02 02:04:52;;;;;;;;;4.00;2.00;;;;;13.06;58.20;100946.63;5036073;28;46162;-66
2023/04/02 02:07:20;;;;;;;;;2.00;2.00;;;;;13.00;57.79;100935.25;5030548;28;45498;-67
2023/04/02 02:09:47;;;;;;;;;4.00;2.00;;;;;13.04;57.30;100944.88;5037304;28;45595;-66
2023/04/02 02:12:14;;;;;;;;;2.67;1.67;;;;;12.91;58.09;100931.78;5035070;28;45468;-66
2023/04/02 02:14:47;;;;;;;;;2.00;1.00;;;;;13.00;58.59;100953.66;5051196;28;45923;-69
2023/04/02 02:17:22;;;;;;;;;3.67;2.00;;;;;12.96;58.19;100955.44;5036602;28;45624;-67
2023/04/02 02:19:54;;;;;;;;;3.00;1.67;;;;;12.96;58.40;100962.47;5040003;28;45330;-69
2023/04/02 02:22:28;;;;;;;;;3.00;3.00;;;;;12.94;59.00;100958.06;5055453;28;45345;-68
2023/04/02 02:24:56;;;;;;;;;2.00;1.00;;;;;12.97;58.68;100958.94;5036499;28;47319;-68
2023/04/02 02:27:21;;;;;;;;;2.00;2.00;;;;;12.95;58.32;100964.19;5053331;28;46114;-66
2023/04/02 02:30:19;;;;;;;;;1.67;1.67;;;;;12.89;58.44;100969.50;5046491;28;45375;-69
2023/04/02 02:32:54;;;;;;;;;2.00;2.00;;;;;12.82;58.35;100976.53;5032103;28;45399;-67
2023/04/02 02:35:48;;;;;;;;;2.33;1.67;;;;;12.85;59.66;100981.75;5034398;28;46420;-70
2023/04/02 02:38:29;;;;;;;;;1.67;1.67;;;;;12.81;59.98;100992.28;5025602;28;45526;-65
2023/04/02 02:41:00;;;;;;;;;1.00;1.00;;;;;12.80;60.58;100998.44;5044690;28;45316;-68
2023/04/02 02:43:26;;;;;;;;;1.00;1.00;;;;;12.74;60.95;100996.69;5044579;28;45457;-67
2023/04/02 02:45:54;;;;;;;;;1.33;1.00;;;;;12.67;60.49;100989.69;5036973;28;45388;-67
2023/04/02 02:48:25;;;;;;;;;1.00;1.00;;;;;12.57;60.71;100967.81;5041906;28;45416;-68
2023/04/02 02:50:53;;;;;;;;;1.33;1.00;;;;;12.74;61.37;101001.94;5025785;28;45338;-68
2023/04/02 02:53:23;;;;;;;;;1.00;1.00;;;;;12.79;61.35;101010.72;5041443;28;45401;-68
2023/04/02 02:55:54;;;;;;;;;2.00;2.00;;;;;12.78;61.75;101014.19;5054645;28;46831;-68
2023/04/02 02:58:26;;;;;;;;;1.00;1.00;;;;;12.77;61.86;101009.84;5052450;28;45451;-67
2023/04/02 03:00:53;;;;;;;;;1.00;1.00;;;;;12.78;61.63;101016.81;5048679;28;45513;-68
2023/04/02 03:03:23;;;;;;;;;2.25;1.00;;;;;12.78;62.01;101015.97;5032362;28;45324;-67
2023/04/02 03:08:39;;;;;;;;;1.00;1.00;;;;;12.96;61.74;101017.66;5080359;27;45448;-68
2023/04/02 03:11:14;;;;;;;;;0.67;0.67;;;;;12.87;61.87;101014.19;5088169;27;45450;-66
2023/04/02 03:13:46;;;;;;;;;1.00;1.00;;;;;12.78;62.23;100997.56;5070161;27;45532;-68
2023/04/02 03:16:42;;;;;;;;;0.33;0.33;;;;;12.85;62.21;101018.56;5071798;27;45453;-69
2023/04/02 03:19:34;;;;;;;;;3.00;1.00;;;;;12.84;62.31;101026.47;5086166;27;45822;-69
2023/04/02 03:22:37;;;;;;;;;2.00;1.33;;;;;12.82;62.29;101031.72;5078908;27;45425;-65
2023/04/02 03:25:21;;;;;;;;;1.00;1.00;;;;;12.82;62.37;101029.09;5036157;28;45348;-66
2023/04/02 03:27:52;;;;;;;;;1.00;1.00;;;;;12.79;62.46;101034.38;5069195;27;45482;-68
2023/04/02 03:30:32;;;;;;;;;0.00;0.00;;;;;12.69;62.75;101024.72;5081031;27;46361;-68
2023/04/02 03:33:03;;;;;;;;;0.33;0.33;;;;;12.69;62.49;101029.97;5075529;27;45740;-66
2023/04/02 03:36:17;;;;;;;;;1.67;1.33;;;;;12.67;62.09;101051.03;5073314;27;45488;-69
2023/04/02 03:38:50;;;;;;;;;1.00;1.00;;;;;12.58;61.99;101035.28;5060608;28;45587;-67
2023/04/02 03:41:21;;;;;;;;;1.00;1.00;;;;;12.67;61.74;101053.66;5080258;27;46676;-66
2023/04/02 03:43:55;;;;;;;;;1.00;1.00;;;;;12.38;62.25;101014.25;5079318;27;45967;-68
2023/04/02 03:46:23;;;;;;;;;2.00;2.00;;;;;12.62;62.15;101057.16;5088226;27;45534;-67
2023/04/02 03:48:57;;;;;;;;;1.00;1.00;;;;;12.57;61.85;101059.78;5077334;27;45435;-67
2023/04/02 03:51:32;;;;;;;;;2.00;2.00;;;;;12.56;61.97;101062.44;5082838;27;45469;-69
2023/04/02 03:53:58;;;;;;;;;1.67;1.67;;;;;12.51;61.67;101051.94;5075002;27;45817;-67
2023/04/02 03:56:38;;;;;;;;;3.00;2.00;;;;;12.49;60.98;101061.56;5074637;27;45527;-68
2023/04/02 03:59:11;;;;;;;;;2.00;2.00;;;;;12.49;61.22;101070.31;5069913;27;45596;-67
2023/04/02 04:01:50;;;;;;;;;2.00;2.00;;;;;12.43;60.98;101054.56;5080776;27;46385;-67
2023/04/02 04:04:18;;;;;;;;;4.00;4.00;;;;;12.43;61.53;101061.53;5076143;27;46925;-65
2023/04/02 04:06:48;;;;;;;;;3.00;2.67;;;;;12.44;60.65;101079.06;5075740;27;45603;-67
2023/04/02 04:09:23;;;;;;;;;3.00;3.00;;;;;12.40;61.23;101086.06;5090074;27;45793;-66
2023/04/02 04:11:55;;;;;;;;;5.00;3.00;;;;;12.37;60.95;101077.31;5089913;27;45409;-66
2023/04/02 04:14:36;;;;;;;;;4.25;4.00;;;;;12.35;60.85;101085.19;5069908;27;45452;-67
2023/04/02 04:17:08;;;;;;;;;7.75;4.25;;;;;12.37;60.79;101087.84;5090912;27;45467;-68
2023/04/02 04:19:44;;;;;;;;;5.75;5.75;;;;;12.33;60.71;101089.56;5077570;27;45410;-67
2023/04/02 04:22:29;;;;;;;;;4.75;4.00;;;;;12.30;60.67;101090.44;5065279;27;45377;-65
2023/04/02 04:25:05;;;;;;;;;5.00;4.50;;;;;12.29;61.28;101091.34;5080040;27;45421;-66
2023/04/02 04:28:04;;;;;;;;;3.25;3.25;;;;;12.26;60.65;101101.81;5075868;27;45501;-66
2023/04/02 04:30:44;;;;;;;;;4.25;4.25;;;;;12.16;60.72;101094.81;5061265;27;45406;-66
2023/04/02 04:33:38;;;;;;;;;5.00;4.00;;;;;12.19;61.03;101094.81;5075595;27;45464;-67
2023/04/02 04:36:17;;;;;;;;;7.25;6.00;;;;;12.26;60.96;101104.44;5075565;27;45539;-70
2023/04/02 04:38:54;;;;;;;;;7.50;6.00;;;;;12.23;61.10;101111.47;5057389;27;45488;-67
2023/04/02 04:41:36;;;;;;;;;8.50;7.50;;;;;12.19;61.18;101113.19;5077164;27;45543;-68
2023/04/02 04:44:26;;;;;;;;;9.00;5.50;;;;;12.17;61.29;101117.59;5079893;27;46253;-67
2023/04/02 04:47:07;;;;;;;;;6.50;5.50;;;;;12.09;61.05;101117.56;5075753;27;45566;-69
2023/04/02 04:49:40;;;;;;;;;6.75;6.25;;;;;12.13;61.43;101125.47;5076091;27;45445;-67
2023/04/02 04:52:17;;;;;;;;;4.75;4.00;;;;;12.13;61.05;101130.72;5074984;27;45429;-68
2023/04/02 04:54:44;;;;;;;;;11.00;7.75;;;;;12.15;61.07;101136.81;5075058;27;45575;-68
2023/04/02 04:57:33;;;;;;;;;7.50;7.50;;;;;12.07;61.29;101135.03;5075201;27;45485;-67
2023/04/02 05:00:11;;;;;;;;;5.75;4.75;;;;;12.11;61.38;101141.19;5079651;27;45351;-67
2023/04/02 05:03:05;;;;;;;;;8.00;8.00;;;;;12.05;61.58;101136.81;5079678;27;45616;-70
2023/04/02 05:05:36;;;;;;;;;8.75;8.25;;;;;12.07;61.32;101153.44;5077219;27;47814;-68
2023/04/02 05:08:12;;;;;;;;;9.00;6.50;;;;;12.01;61.47;101142.94;5075299;27;45501;-67
2023/04/02 05:11:07;;;;;;;;;11.50;9.00;;;;;12.07;61.49;101163.06;5058076;27;45513;-67
2023/04/02 05:13:50;;;;;;;;;10.75;7.50;;;;;12.00;61.37;101162.16;5087150;27;45437;-66
2023/04/02 05:16:25;;;;;;;;;16.75;10.00;;;;;12.02;61.29;101170.91;5089282;27;45541;-68
2023/04/02 05:19:00;;;;;;;;;9.50;9.50;;;;;12.01;61.16;101179.69;5076666;27;45922;-68
2023/04/02 05:21:49;;;;;;;;;7.25;7.25;;;;;11.91;61.16;101171.75;5077139;27;45453;-67
2023/04/02 05:24:36;;;;;;;;;10.75;9.75;;;;;12.02;61.17;101175.31;5095682;27;45986;-69
2023/04/02 05:27:14;;;;;;;;;11.00;10.00;;;;;11.97;61.49;101188.41;5063073;27;47072;-68
2023/04/02 05:29:43;;;;;;;;;8.75;6.75;;;;;11.99;61.61;101189.28;5098342;27;45550;-68
2023/04/02 05:32:20;;;;;;;;;8.50;5.00;;;;;12.00;61.53;101191.03;5099490;27;45334;-66
2023/04/02 05:34:51;;;;;;;;;11.00;8.00;;;;;11.97;61.73;101185.78;5100138;27;45427;-69
2023/04/02 05:37:23;;;;;;;;;8.50;7.00;;;;;12.00;61.30;101198.91;5094890;27;46258;-67
2023/04/02 05:39:55;;;;;;;;;9.25;7.75;;;;;12.01;61.31;101205.06;5095102;27;45416;-69
2023/04/02 05:42:28;;;;;;;;;8.50;8.25;;;;;11.98;61.23;101199.78;5094893;27;45473;-69
2023/04/02 05:45:18;;;;;;;;;10.00;9.00;;;;;11.99;61.07;101214.69;5097710;27;45316;-68
2023/04/02 05:47:47;;;;;;;;;10.00;6.25;;;;;11.95;61.47;101208.53;5083578;27;45376;-70
2023/04/02 05:50:23;;;;;;;;;11.25;9.75;;;;;11.98;60.93;101229.56;5078430;27;45568;-67
2023/04/02 05:53:27;;;;;;;;;11.25;11.25;;;;;11.91;61.33;101221.63;5058403;28;45441;-69
2023/04/02 05:56:22;;;;;;;;;13.00;10.50;;;;;11.90;61.58;101226.00;5046515;27;45500;-69
2023/04/02 05:58:55;;;;;;;;;10.00;6.75;;;;;11.87;61.58;101224.25;5073946;27;46268;-67
2023/04/02 06:01:39;;;;;;;;;6.25;6.25;;;;;11.88;61.34;101233.00;5056100;28;45825;-69
2023/04/02 06:04:35;;;;;;;;;10.75;8.75;;;;;11.83;61.72;101226.81;5073772;27;45551;-67
2023/04/02 06:07:08;;;;;;;;;11.25;8.75;;;;;11.84;62.05;101237.34;5059988;27;45690;-69
2023/04/02 06:09:42;;;;;;;;;10.00;5.25;;;;;11.77;61.53;101226.78;5074452;27;46366;-66
2023/04/02 06:12:38;;;;;;;;;10.00;8.75;;;;;11.81;61.66;101244.31;5056087;28;45410;-70
2023/04/02 06:15:05;;;;;;;;;14.00;9.00;;;;;11.81;61.68;101239.91;5089991;27;45323;-67
2023/04/02 06:17:45;;;;;;;;;8.50;6.00;;;;;11.71;62.02;101240.75;5080348;27;45327;-68
2023/04/02 06:20:16;;;;;;;;;10.50;6.50;;;;;11.81;62.09;101257.41;5081309;27;46233;-66
2023/04/02 06:22:46;;;;;;;;;5.25;5.00;;;;;11.75;61.87;101242.53;5066285;27;45631;-69
2023/04/02 06:25:32;;;;;;;;;9.25;8.00;;;;;11.83;61.89;101259.19;5077356;27;45563;-67
2023/04/02 06:28:03;;;;;;;;;9.00;7.00;;;;;11.85;61.58;101257.44;5056205;28;45483;-69
2023/04/02 06:30:38;;;;;;;;;8.25;5.00;;;;;11.88;61.83;101260.13;5056049;28;45732;-65
2023/04/02 06:33:03;;;;;;;;;9.25;6.75;;;;;11.90;61.54;101254.00;5074399;27;45468;-67
2023/04/02 06:35:29;;;;;;;;;10.25;5.75;;;;;11.85;61.14;101251.31;5060396;28;45795;-68
2023/04/02 06:38:01;;;;;;;;;4.75;4.75;;;;;11.91;61.45;101261.88;5064108;27;45470;-69
2023/04/02 06:40:45;;;;;;;;;11.00;8.25;;;;;11.91;61.00;101263.63;5057264;28;46851;-67
2023/04/02 06:43:32;;;;;;;;;7.25;6.50;;;;;11.91;60.92;101272.38;5073556;27;45473;-66
2023/04/02 06:46:00;;;;;;;;;5.50;5.25;;;;;11.88;61.16;101272.38;5055523;28;45563;-67
2023/04/02 06:48:28;;;;;;;;;8.50;7.00;;;;;11.93;61.16;101275.00;5074287;27;45515;-66
2023/04/02 06:51:05;;;;;;;;;9.25;6.00;;;;;11.93;60.83;101275.88;5059799;28;48040;-67
2023/04/02 06:53:48;;;;;;;;;7.00;5.50;;;;;11.91;61.00;101272.38;5056931;28;45592;-66
2023/04/02 06:57:00;;;;;;;;;;;;;;;;;;;;;
2023/04/02 06:59:26;;;;;;;;;10.00;10.00;;;;;11.87;61.00;101279.38;5069056;28;62942;-68
2023/04/02 07:02:02;;;;;;;;;11.50;9.00;;;;;11.92;60.80;101299.53;5054558;28;47846;-68
2023/04/02 07:04:56;;;;;;;;;8.00;6.00;;;;;11.90;61.41;101304.75;5055645;28;45567;-66
2023/04/02 07:07:21;;;;;;;;;6.25;5.25;;;;;11.81;61.18;101289.78;5055343;27;45450;-68
2023/04/02 07:09:47;;;;;;;;;10.75;8.00;;;;;11.93;61.54;101311.75;5076288;27;45696;-67
2023/04/02 07:12:13;;;;;;;;;8.00;6.00;;;;;11.90;61.68;101319.63;5073622;27;45934;-66
2023/04/02 07:14:39;;;;;;;;;5.50;5.50;;;;;11.79;61.01;101301.16;5075174;27;45440;-68
2023/04/02 07:17:04;;;;;;;;;5.75;5.25;;;;;11.85;61.09;101317.81;5088477;27;45912;-67
2023/04/02 07:19:30;;;;;;;;;9.50;8.00;;;;;11.87;61.43;101321.38;5081343;27;45570;-67
2023/04/02 07:21:56;;;;;;;;;12.25;10.25;;;;;11.90;61.01;101325.75;5098200;27;45414;-65
2023/04/02 07:24:22;;;;;;;;;14.25;8.25;;;;;11.79;61.31;101333.53;5069593;27;45723;-68
2023/04/02 07:26:58;;;;;;;;;9.75;7.50;;;;;11.77;61.81;101337.91;5074995;27;45735;-66
2023/04/02 07:29:23;;;;;;;;;8.50;6.50;;;;;11.76;61.57;101335.25;5075775;27;45813;-68
2023/04/02 07:31:49;;;;;;;;;10.00;8.25;;;;;11.63;61.79;101324.69;5093629;27;45830;-69
2023/04/02 07:34:14;;;;;;;;;11.25;10.00;;;;;11.70;61.70;101343.97;5097222;27;45487;-66
2023/04/02 07:36:40;;;;;;;;;11.50;9.00;;;;;11.73;61.61;101351.00;5066207;27;45474;-68
2023/04/02 07:39:08;;;;;;;;;9.00;9.00;;;;;11.65;61.11;101337.78;5081854;27;45869;-68
2023/04/02 07:41:50;;;;;;;;;15.00;10.50;;;;;11.70;61.69;101362.34;5084842;27;46204;-69
2023/04/02 07:44:16;;;;;;;;;12.25;10.25;;;;;11.75;61.62;101365.88;5073021;27;45663;-67
2023/04/02 07:46:41;;;;;;;;;15.75;11.00;;;;;11.75;61.59;101362.38;5072643;27;45484;-66
2023/04/02 07:49:07;;;;;;;;;10.25;8.75;;;;;11.75;61.80;101375.50;5085376;27;45308;-67
2023/04/02 07:51:36;;;;;;;;;15.00;13.00;;;;;11.67;61.79;101363.19;5077430;27;45407;-69
2023/04/02 07:54:02;;;;;;;;;16.25;13.75;;;;;11.64;61.89;101368.41;5056865;28;45568;-68
2023/04/02 07:56:27;;;;;;;;;17.25;13.00;;;;;11.55;61.71;101356.97;5076341;27;45654;-68
2023/04/02 07:58:53;;;;;;;;;13.75;10.75;;;;;11.66;62.00;101378.94;5076396;27;45453;-72
2023/04/02 08:01:26;;;;;;;;;14.25;10.50;;;;;11.70;61.86;101369.31;5077478;27;45419;-69
2023/04/02 08:03:53;;;;;;;;;13.00;12.25;;;;;11.65;62.22;101369.28;5082347;27;45529;-66
2023/04/02 08:06:20;;;;;;;;;15.25;13.25;;;;;11.70;62.01;101379.81;5097142;27;45527;-68
2023/04/02 08:08:45;;;;;;;;;9.75;9.00;;;;;11.74;62.20;101387.72;5093218;27;45636;-67
2023/04/02 08:11:11;;;;;;;;;12.00;9.25;;;;;11.76;61.77;101393.00;5079105;27;46052;-70
2023/04/02 08:13:36;;;;;;;;;9.00;8.75;;;;;11.80;61.29;101394.78;5088200;27;45444;-69
2023/04/02 08:16:04;;;;;;;;;14.75;12.25;;;;;11.81;61.83;101401.78;5100840;27;45515;-68
2023/04/02 08:18:30;;;;;;;;;11.75;9.50;;;;;11.76;62.01;101409.59;5084902;27;45469;-68
2023/04/02 08:20:56;;;;;;;;;13.50;12.25;;;;;11.73;61.94;101413.97;5097164;27;45576;-69
2023/04/02 08:23:23;;;;;;;;;10.00;8.25;;;;;11.67;62.31;101407.81;5078003;27;45554;-69
2023/04/02 08:25:49;;;;;;;;;11.25;10.00;;;;;11.68;62.09;101411.31;5096169;27;45472;-69
2023/04/02 08:28:15;;;;;;;;;18.50;11.75;;;;;11.65;62.17;101413.88;5101027;27;45329;-68
2023/04/02 08:30:41;;;;;;;;;9.25;9.25;;;;;11.63;62.10;101410.41;5082258;27;46232;-69
2023/04/02 08:33:07;;;;;;;;;11.00;8.25;;;;;11.73;62.23;101427.97;5082118;27;45334;-68
2023/04/02 08:35:37;;;;;;;;;15.50;12.50;;;;;11.71;61.87;101405.19;5100407;27;45470;-67
2023/04/02 08:38:03;;;;;;;;;20.50;15.75;;;;;11.75;61.95;101417.50;5101174;27;45461;-69
2023/04/02 08:40:35;;;;;;;;;12.25;12.00;;;;;11.77;62.02;101427.13;5096683;27;45500;-67
2023/04/02 08:43:29;;;;;;;;;12.50;11.00;;;;;11.82;61.76;101435.91;5078065;27;45394;-69
2023/04/02 08:46:22;;;;;;;;;13.25;11.75;;;;;11.82;61.56;101432.41;5083891;27;45457;-70
2023/04/02 08:48:58;;;;;;;;;10.25;10.25;;;;;11.75;61.35;101428.00;5078864;27;45899;-68
2023/04/02 08:52:00;;;;;;;;;8.50;8.50;;;;;11.74;60.68;101434.09;5073232;27;47072;-69
2023/04/02 08:54:38;;;;;;;;;8.25;7.25;;;;;11.92;60.75;101444.78;5070309;27;45468;-69
2023/04/02 08:57:23;;;;;;;;;9.75;9.25;;;;;11.94;60.57;101439.53;5041906;27;45942;-70
2023/04/02 08:59:55;;;;;;;;;8.25;8.00;;;;;11.97;59.76;101440.44;5079064;27;45327;-69
2023/04/02 09:02:36;;;;;;;;;8.75;6.75;;;;;11.96;59.68;101453.53;5074957;27;45797;-69
2023/04/02 09:05:06;;;;;;;;;7.75;7.75;;;;;11.86;59.51;101445.59;5057836;28;45726;-68
2023/04/02 09:07:32;;;;;;;;;8.50;8.50;;;;;11.94;59.62;101464.03;5063402;27;45489;-68
2023/04/02 09:09:58;;;;;;;;;10.50;8.75;;;;;11.96;59.90;101475.44;5079301;27;45441;-67
2023/04/02 09:12:30;;;;;;;;;13.00;9.75;;;;;12.01;60.29;101488.59;5079231;27;45525;-70
2023/04/02 09:14:58;;;;;;;;;10.25;8.75;;;;;11.99;60.25;101496.47;5098593;27;45488;-67
2023/04/02 09:17:26;;;;;;;;;10.50;7.50;;;;;12.00;59.98;101511.34;5097275;27;45283;-68
2023/04/02 09:20:12;;;;;;;;;12.50;11.25;;;;;11.98;60.09;101497.34;5077964;27;45447;-69
2023/04/02 09:22:38;;;;;;;;;9.75;9.25;;;;;11.95;60.24;101506.91;5077339;27;45724;-68
2023/04/02 09:25:11;;;;;;;;;13.25;11.50;;;;;11.90;59.98;101500.75;5096137;27;45442;-68
2023/04/02 09:27:37;;;;;;;;;10.75;10.75;;;;;11.92;61.07;101510.41;5098889;27;45366;-68
2023/04/02 09:30:10;;;;;;;;;16.50;11.75;;;;;11.96;60.77;101509.56;5095881;27;45394;-68
2023/04/02 09:32:47;;;;;;;;;14.25;11.75;;;;;11.98;59.88;101526.22;5090399;27;45491;-69
2023/04/02 09:35:18;;;;;;;;;12.25;11.00;;;;;12.02;62.02;101525.34;5081660;27;45408;-67
2023/04/02 09:37:45;;;;;;;;;13.75;10.75;;;;;12.08;60.57;101521.94;5085672;27;45577;-67
2023/04/02 09:40:23;;;;;;;;;12.75;11.25;;;;;12.07;59.96;101528.91;5100950;27;45456;-68
2023/04/02 09:43:00;;;;;;;;;10.00;9.75;;;;;12.10;60.58;101525.41;5095869;27;46122;-69
2023/04/02 09:45:26;;;;;;;;;11.00;10.25;;;;;12.04;59.89;101509.63;5090280;27;45413;-69
2023/04/02 09:47:55;;;;;;;;;10.25;8.00;;;;;12.09;60.23;101515.78;5091730;27;45638;-66
2023/04/02 09:50:20;;;;;;;;;7.75;7.75;;;;;12.25;59.80;101532.56;5093857;27;45428;-68
2023/04/02 09:52:47;;;;;;;;;13.75;12.00;;;;;12.20;59.26;101527.28;5096594;27;46317;-68
2023/04/02 09:55:24;;;;;;;;;12.25;12.25;;;;;12.21;59.31;101533.41;5094801;27;45445;-68
2023/04/02 09:58:05;;;;;;;;;12.00;9.75;;;;;12.21;59.74;101528.13;5092320;27;45689;-69
2023/04/02 10:00:31;;;;;;;;;12.00;10.50;;;;;12.30;59.95;101538.72;5075138;27;45589;-67
2023/04/02 10:03:24;;;;;;;;;16.50;12.00;;;;;12.32;59.27;101538.75;5074087;27;46681;-67
2023/04/02 10:06:07;;;;;;;;;12.25;11.00;;;;;12.29;59.34;101537.84;5087784;27;45563;-68
2023/04/02 10:08:34;;;;;;;;;12.50;11.00;;;;;12.27;59.13;101544.84;5090367;27;45466;-67
2023/04/02 10:11:04;;;;;;;;;12.75;10.50;;;;;12.26;58.73;101539.56;5088818;27;45814;-68
2023/04/02 10:13:56;;;;;;;;;11.75;11.75;;;;;12.22;58.80;101549.19;5072186;27;48320;-67
2023/04/02 10:16:47;;;;;;;;;17.25;14.25;;;;;12.23;58.56;101557.94;5091031;27;45435;-68
2023/04/02 10:19:42;;;;;;;;;11.25;10.25;;;;;12.23;58.33;101578.94;5093893;27;45695;-68
2023/04/02 10:22:16;;;;;;;;;12.25;11.50;;;;;12.21;58.78;101575.41;5068271;27;45804;-68
2023/04/02 10:24:42;;;;;;;;;10.25;9.50;;;;;12.17;58.00;101573.63;5073672;27;45845;-68
2023/04/02 10:27:52;;;;;;;;;12.00;10.00;;;;;12.21;58.22;101576.28;5096891;27;45314;-68
2023/04/02 10:30:41;;;;;;;;;16.50;11.25;;;;;12.21;57.97;101581.53;5014388;28;45494;-68
2023/04/02 10:33:21;;;;;;;;;13.00;12.25;;;;;12.22;58.00;101588.56;5027977;28;45856;-69
2023/04/02 10:36:06;;;;;;;;;17.00;12.50;;;;;12.17;58.28;101582.41;5068899;27;46236;-70
2023/04/02 10:38:49;;;;;;;;;12.50;11.00;;;;;12.20;61.50;101592.94;5077722;27;45418;-68
2023/04/02 10:41:40;;;;;;;;;14.00;10.50;;;;;12.27;61.24;101594.75;5077695;27;45277;-67
2023/04/02 10:44:09;;;;;;;;;10.50;10.50;;;;;12.34;60.11;101602.66;5074285;27;45398;-67
2023/04/02 10:46:41;;;;;;;;;14.25;11.00;;;;;12.40;59.30;101600.09;5076263;27;45487;-69
2023/04/02 10:49:30;;;;;;;;;11.75;9.75;;;;;12.45;59.41;101599.25;5078626;27;45261;-67
2023/04/02 10:52:03;;;;;;;;;15.50;11.25;;;;;12.48;59.14;101601.94;5092319;27;45551;-69
2023/04/02 10:54:32;;;;;;;;;15.75;13.50;;;;;12.58;59.27;101608.13;5091906;27;45335;-66
2023/04/02 10:57:22;;;;;;;;;13.25;11.75;;;;;12.66;58.32;101605.56;5075524;27;45441;-68
2023/04/02 11:00:00;;;;;;;;;18.75;12.25;;;;;12.75;57.96;101608.25;5074165;27;45820;-67
2023/04/02 11:02:35;;;;;;;;;12.75;9.75;;;;;12.76;57.97;101614.38;5073989;27;45487;-70
2023/04/02 11:05:11;;;;;;;;;12.25;12.25;;;;;12.75;57.69;101626.66;5056052;28;45523;-66
2023/04/02 11:07:51;;;;;;;;;20.75;14.00;;;;;12.63;56.55;101606.41;5075366;27;45508;-68
2023/04/02 11:10:19;;;;;;;;;15.25;11.75;;;;;12.68;56.95;101622.22;5074364;27;45270;-69
2023/04/02 11:12:55;;;;;;;;;13.00;9.75;;;;;12.60;57.07;101632.69;5073696;27;45963;-70
2023/04/02 11:15:21;;;;;;;;;11.00;10.25;;;;;12.54;56.79;101618.59;5060006;27;45661;-68
2023/04/02 11:17:48;;;;;;;;;14.25;11.25;;;;;12.56;57.20;101627.38;5093213;27;45372;-68
2023/04/02 11:20:47;;;;;;;;;11.50;8.50;;;;;12.55;56.38;101639.63;5073267;27;45714;-67
2023/04/02 11:23:20;;;;;;;;;16.75;11.50;;;;;12.41;57.04;101607.09;5079581;27;45922;-65
2023/04/02 11:25:47;;;;;;;;;16.50;12.00;;;;;12.53;56.95;101641.38;5073866;27;45715;-66
2023/04/02 11:28:30;;;;;;;;;15.50;12.25;;;;;12.47;57.14;101633.44;5073103;27;45738;-66
2023/04/02 11:30:57;;;;;;;;;14.75;11.25;;;;;12.47;57.25;101634.31;5076793;27;45711;-65
2023/04/02 11:33:32;;;;;;;;;19.00;15.00;;;;;12.45;57.38;101638.66;5080324;27;45507;-67
2023/04/02 11:35:59;;;;;;;;;17.00;12.00;;;;;12.43;57.30;101642.16;5080325;27;45464;-65
2023/04/02 11:38:25;;;;;;;;;14.50;13.00;;;;;12.43;56.64;101648.31;5060726;27;48190;-65
2023/04/02 11:40:58;;;;;;;;;18.50;14.50;;;;;12.37;56.92;101640.34;5076809;27;45536;-67
2023/04/02 11:43:33;;;;;;;;;16.25;11.50;;;;;12.34;57.13;101642.06;5076360;27;45539;-68
2023/04/02 11:46:23;;;;;;;;;19.00;13.50;;;;;12.30;57.07;101647.28;5076491;27;45653;-67
2023/04/02 11:48:48;;;;;;;;;14.25;10.00;;;;;12.19;57.60;101625.28;5057548;28;46711;-67
2023/04/02 11:51:21;;;;;;;;;19.00;12.75;;;;;12.27;57.36;101664.78;5058245;28;45421;-68
2023/04/02 11:53:52;;;;;;;;;15.00;11.50;;;;;12.24;57.78;101670.00;5058020;27;45508;-68
2023/04/02 11:56:31;;;;;;;;;17.25;13.50;;;;;12.27;57.33;101667.41;5061831;28;46122;-66
2023/04/02 11:59:22;;;;;;;;;14.50;13.00;;;;;12.30;57.58;101667.44;5061083;27;45486;-68
2023/04/02 12:02:00;;;;;;;;;18.25;15.75;;;;;12.32;57.45;101670.97;5076319;27;45563;-66